createdAt,value
2019-01-10T00:01:56.709Z,76.47
2019-01-10T00:04:22.891Z,77.00
2019-01-10T00:06:48.944Z,76.89
2019-01-10T00:09:15.211Z,76.23
2019-01-10T00:11:41.438Z,76.86
2019-01-10T00:14:07.455Z,76.97
2019-01-10T00:16:33.484Z,77.32
2019-01-10T00:18:59.482Z,77.26
2019-01-10T00:21:25.568Z,76.86
2019-01-10T00:23:51.696Z,76.99
2019-01-10T00:26:17.923Z,76.57
2019-01-10T00:28:44.106Z,76.98
2019-01-10T00:31:10.523Z,77.07
2019-01-10T00:33:36.549Z,77.06
2019-01-10T00:36:02.990Z,76.90
2019-01-10T00:38:29.014Z,77.23
2019-01-10T00:40:55.194Z,77.45
2019-01-10T00:43:21.424Z,77.38
2019-01-10T00:45:47.447Z,76.89
2019-01-10T00:48:13.530Z,76.42
2019-01-10T00:50:39.679Z,76.62
2019-01-10T00:53:05.836Z,76.39
2019-01-10T00:55:32.138Z,76.57
2019-01-10T00:57:58.359Z,76.43
2019-01-10T01:00:25.893Z,76.60
2019-01-10T01:02:51.998Z,75.78
2019-01-10T01:05:19.368Z,74.16
2019-01-10T01:07:45.495Z,74.65
2019-01-10T01:10:16.831Z,74.30
2019-01-10T01:12:42.855Z,74.31
2019-01-10T01:15:11.229Z,74.39
2019-01-10T01:17:37.394Z,74.73
2019-01-10T01:20:06.557Z,74.53
2019-01-10T01:22:32.730Z,74.88
2019-01-10T01:24:58.897Z,75.11
2019-01-10T01:27:25.226Z,75.45
2019-01-10T01:29:51.254Z,75.36
2019-01-10T01:32:17.403Z,75.54
2019-01-10T01:34:43.419Z,75.77
2019-01-10T01:37:09.511Z,76.36
2019-01-10T01:39:35.631Z,76.74
2019-01-10T01:42:01.697Z,76.28
2019-01-10T01:44:27.853Z,76.23
2019-01-10T01:46:54.196Z,76.06
2019-01-10T01:49:20.235Z,76.53
2019-01-10T01:51:46.606Z,76.16
2019-01-10T01:54:12.769Z,76.33
2019-01-10T01:56:38.782Z,76.81
2019-01-10T01:59:04.904Z,77.06
2019-01-10T02:01:31.055Z,76.84
2019-01-10T02:03:57.080Z,76.56
2019-01-10T02:06:23.126Z,76.39
2019-01-10T02:08:49.181Z,76.58
2019-01-10T02:11:15.298Z,76.60
2019-01-10T02:13:41.559Z,76.63
2019-01-10T02:16:07.667Z,76.61
2019-01-10T02:18:33.735Z,76.49
2019-01-10T02:21:00.132Z,76.63
2019-01-10T02:23:26.295Z,77.00
2019-01-10T02:25:52.294Z,76.77
2019-01-10T02:28:18.591Z,76.60
2019-01-10T02:30:44.615Z,76.36
2019-01-10T02:33:10.760Z,76.45
2019-01-10T02:35:36.779Z,76.72
2019-01-10T02:38:03.118Z,76.34
2019-01-10T02:40:29.159Z,76.26
2019-01-10T02:42:55.179Z,76.37
2019-01-10T02:45:21.202Z,76.40
2019-01-10T02:47:47.218Z,76.40
2019-01-10T02:50:16.827Z,76.61
2019-01-10T02:52:42.835Z,76.41
2019-01-10T02:55:09.314Z,76.14
2019-01-10T02:57:35.394Z,76.16
2019-01-10T03:00:03.568Z,76.52
2019-01-10T03:02:29.620Z,76.69
2019-01-10T03:04:55.756Z,75.84
2019-01-10T03:07:21.762Z,76.20
2019-01-10T03:09:47.790Z,75.25
2019-01-10T03:12:13.835Z,75.71
2019-01-10T03:14:39.862Z,76.00
2019-01-10T03:17:06.119Z,76.36
2019-01-10T03:19:32.276Z,76.55
2019-01-10T03:21:58.339Z,76.52
2019-01-10T03:24:24.544Z,76.85
2019-01-10T03:26:50.782Z,76.21
2019-01-10T03:29:16.792Z,76.34
2019-01-10T03:31:42.816Z,78.97
2019-01-10T03:34:08.852Z,76.68
2019-01-10T03:36:34.984Z,76.14
2019-01-10T03:39:00.978Z,76.01
2019-01-10T03:41:27.014Z,76.82
2019-01-10T03:43:53.036Z,76.52
2019-01-10T03:46:19.069Z,76.93
2019-01-10T03:48:45.072Z,77.09
2019-01-10T03:51:11.103Z,77.11
2019-01-10T03:53:37.122Z,77.63
2019-01-10T03:56:03.245Z,77.59
2019-01-10T03:58:29.271Z,77.36
2019-01-10T04:00:55.294Z,77.77
2019-01-10T04:03:21.442Z,77.81
2019-01-10T04:05:47.454Z,78.00
2019-01-10T04:08:13.471Z,77.76
2019-01-10T04:10:39.580Z,77.95
2019-01-10T04:13:05.632Z,77.69
2019-01-10T04:15:31.772Z,77.96
2019-01-10T04:17:57.793Z,77.72
2019-01-10T04:20:23.796Z,77.61
2019-01-10T04:22:49.835Z,77.91
2019-01-10T04:25:15.881Z,78.45
2019-01-10T04:27:42.086Z,78.29
2019-01-10T04:30:14.457Z,78.74
2019-01-10T04:32:40.465Z,79.24
2019-01-10T04:35:06.829Z,80.41
2019-01-10T04:37:33.142Z,81.70
2019-01-10T04:39:59.219Z,82.48
2019-01-10T04:42:25.247Z,83.20
2019-01-10T04:44:51.302Z,87.77
2019-01-10T04:47:17.422Z,86.65
2019-01-10T04:49:43.510Z,82.14
2019-01-10T04:52:09.612Z,82.98
2019-01-10T04:54:38.350Z,83.47
2019-01-10T04:57:03.714Z,83.83
2019-01-10T04:59:29.740Z,83.79
2019-01-10T05:01:55.799Z,84.63
2019-01-10T05:04:21.821Z,84.15
2019-01-10T05:06:47.855Z,84.01
2019-01-10T05:09:14.133Z,84.40
2019-01-10T05:11:40.183Z,83.86
2019-01-10T05:14:06.207Z,84.25
2019-01-10T05:16:32.357Z,84.00
2019-01-10T05:18:58.472Z,84.11
2019-01-10T05:21:24.898Z,84.70
2019-01-10T05:23:51.138Z,84.53
2019-01-10T05:26:17.155Z,84.28
2019-01-10T05:28:43.275Z,83.79
2019-01-10T05:31:09.406Z,83.78
2019-01-10T05:33:35.459Z,84.50
2019-01-10T05:36:01.598Z,84.43
2019-01-10T05:38:27.764Z,84.56
2019-01-10T05:40:53.891Z,84.76
2019-01-10T05:43:19.923Z,84.23
2019-01-10T05:45:46.025Z,84.50
2019-01-10T05:48:12.202Z,84.24
2019-01-10T05:50:39.188Z,83.94
2019-01-10T05:53:05.218Z,83.80
2019-01-10T05:55:31.246Z,83.73
2019-01-10T05:57:57.251Z,83.65
2019-01-10T06:00:24.330Z,83.40
2019-01-10T06:02:50.365Z,82.84
2019-01-10T06:05:16.799Z,82.42
2019-01-10T06:07:42.800Z,82.18
2019-01-10T06:10:14.990Z,82.25
2019-01-10T06:12:41.139Z,82.63
2019-01-10T06:15:10.577Z,82.87
2019-01-10T06:17:36.723Z,82.44
2019-01-10T06:20:06.469Z,82.18
2019-01-10T06:22:32.732Z,82.67
2019-01-10T06:24:58.761Z,82.65
2019-01-10T06:27:24.816Z,82.21
2019-01-10T06:29:50.879Z,82.20
2019-01-10T06:32:16.886Z,82.63
2019-01-10T06:34:42.916Z,82.61
2019-01-10T06:37:08.975Z,83.33
2019-01-10T06:39:35.069Z,84.47
2019-01-10T06:42:01.220Z,83.66
2019-01-10T06:44:27.784Z,83.22
2019-01-10T06:46:53.933Z,83.44
2019-01-10T06:49:20.060Z,83.28
2019-01-10T06:51:46.048Z,83.89
2019-01-10T06:54:12.066Z,85.18
2019-01-10T06:56:38.074Z,85.36
2019-01-10T06:59:04.147Z,83.86
2019-01-10T07:01:30.242Z,82.85
2019-01-10T07:03:56.370Z,82.70
2019-01-10T07:06:22.650Z,81.73
2019-01-10T07:08:48.781Z,82.01
2019-01-10T07:11:14.907Z,82.41
2019-01-10T07:13:40.939Z,82.56
2019-01-10T07:16:07.065Z,83.09
2019-01-10T07:18:33.269Z,83.26
2019-01-10T07:20:59.351Z,83.27
2019-01-10T07:23:25.410Z,83.45
2019-01-10T07:25:53.570Z,83.54
2019-01-10T07:28:22.662Z,83.76
2019-01-10T07:30:48.695Z,83.42
2019-01-10T07:33:14.741Z,83.86
2019-01-10T07:35:41.102Z,83.37
2019-01-10T07:38:07.110Z,83.03
2019-01-10T07:40:37.067Z,83.24
2019-01-10T07:43:03.199Z,82.57
2019-01-10T07:45:29.240Z,82.31
2019-01-10T07:47:55.425Z,82.43
2019-01-10T07:50:26.677Z,82.53
2019-01-10T07:52:53.053Z,82.29
2019-01-10T07:55:19.119Z,82.28
2019-01-10T07:57:45.246Z,81.99
2019-01-10T08:00:14.811Z,82.30
2019-01-10T08:02:41.033Z,82.08
2019-01-10T08:05:07.901Z,81.41
2019-01-10T08:07:33.943Z,81.51
2019-01-10T08:10:00.003Z,81.04
2019-01-10T08:12:26.130Z,81.07
2019-01-10T08:14:52.258Z,80.64
2019-01-10T08:17:18.301Z,80.83
2019-01-10T08:19:44.336Z,81.27
2019-01-10T08:22:10.339Z,81.03
2019-01-10T08:24:36.382Z,80.57
2019-01-10T08:27:02.551Z,80.88
2019-01-10T08:29:28.607Z,80.96
2019-01-10T08:31:54.631Z,80.99
2019-01-10T08:34:20.650Z,80.99
2019-01-10T08:36:46.689Z,80.26
2019-01-10T08:39:12.722Z,79.65
2019-01-10T08:41:38.726Z,79.88
2019-01-10T08:44:04.858Z,79.92
2019-01-10T08:46:30.921Z,80.20
2019-01-10T08:48:57.060Z,80.26
2019-01-10T08:51:23.191Z,81.12
2019-01-10T08:53:54.168Z,80.35
2019-01-10T08:56:17.295Z,79.80
2019-01-10T08:58:43.350Z,80.10
2019-01-10T09:01:09.478Z,79.89
2019-01-10T09:03:35.499Z,79.54
2019-01-10T09:06:08.011Z,78.58
2019-01-10T09:08:29.478Z,78.34
2019-01-10T09:10:55.620Z,78.82
2019-01-10T09:13:21.751Z,78.41
2019-01-10T09:15:47.799Z,78.79
2019-01-10T09:18:13.909Z,78.12
2019-01-10T09:20:40.346Z,78.51
2019-01-10T09:23:06.493Z,78.43
2019-01-10T09:25:32.962Z,78.03
2019-01-10T09:27:59.043Z,78.44
2019-01-10T09:30:25.306Z,78.36
2019-01-10T09:32:51.569Z,78.16
2019-01-10T09:35:17.598Z,78.68
2019-01-10T09:37:43.748Z,78.16
2019-01-10T09:40:18.558Z,78.07
2019-01-10T09:42:44.791Z,77.93
2019-01-10T09:45:13.730Z,78.09
2019-01-10T09:47:39.776Z,78.66
2019-01-10T09:50:09.403Z,78.88
2019-01-10T09:52:35.454Z,78.45
2019-01-10T09:55:01.525Z,79.10
2019-01-10T09:57:27.578Z,78.70
2019-01-10T09:59:53.940Z,78.59
2019-01-10T10:02:19.966Z,79.12
2019-01-10T10:04:46.271Z,77.71
2019-01-10T10:07:12.298Z,78.87
2019-01-10T10:09:38.325Z,79.48
2019-01-10T10:12:04.386Z,78.05
2019-01-10T10:14:30.511Z,78.13
2019-01-10T10:16:56.562Z,77.07
2019-01-10T10:19:22.593Z,76.91
2019-01-10T10:21:48.762Z,78.18
2019-01-10T10:24:14.869Z,77.64
2019-01-10T10:26:41.123Z,77.77
2019-01-10T10:29:07.195Z,76.91
2019-01-10T10:31:33.282Z,76.49
2019-01-10T10:33:59.318Z,75.70
2019-01-10T10:36:25.977Z,76.71
2019-01-10T10:38:52.002Z,76.94
2019-01-10T10:41:18.058Z,77.63
2019-01-10T10:43:44.248Z,76.58
2019-01-10T10:46:10.614Z,76.58
2019-01-10T10:48:36.931Z,76.33
2019-01-10T10:51:03.328Z,76.10
2019-01-10T10:53:29.427Z,75.46
2019-01-10T10:55:55.789Z,76.64
2019-01-10T10:58:21.923Z,76.23
2019-01-10T11:00:48.093Z,77.26
2019-01-10T11:03:14.262Z,76.87
2019-01-10T11:05:40.387Z,75.65
2019-01-10T11:08:06.386Z,76.47
2019-01-10T11:10:32.651Z,78.47
2019-01-10T11:12:58.650Z,75.58
2019-01-10T11:15:25.424Z,75.75
2019-01-10T11:17:51.826Z,77.25
2019-01-10T11:20:20.759Z,76.04
2019-01-10T11:22:47.652Z,75.39
2019-01-10T11:25:16.340Z,75.63
2019-01-10T11:27:42.571Z,75.35
2019-01-10T11:30:11.912Z,75.20
2019-01-10T11:32:37.978Z,76.36
2019-01-10T11:35:04.340Z,76.45
2019-01-10T11:37:30.335Z,75.19
2019-01-10T11:39:56.605Z,76.23
2019-01-10T11:42:22.681Z,76.26
2019-01-10T11:44:48.750Z,75.71
2019-01-10T11:47:14.895Z,76.90
2019-01-10T11:49:40.909Z,75.48
2019-01-10T11:52:07.263Z,75.00
2019-01-10T11:54:33.323Z,74.68
2019-01-10T11:56:59.460Z,75.78
2019-01-10T11:59:25.508Z,76.50
2019-01-10T12:01:51.542Z,76.39
2019-01-10T12:04:17.691Z,75.17
2019-01-10T12:06:43.691Z,75.25
2019-01-10T12:09:09.831Z,76.32
2019-01-10T12:11:35.883Z,75.58
2019-01-10T12:14:02.098Z,75.86
2019-01-10T12:16:28.903Z,76.38
2019-01-10T12:18:59.344Z,76.52
2019-01-10T12:21:23.230Z,75.30
2019-01-10T12:23:49.383Z,74.52
2019-01-10T12:26:15.506Z,73.76
2019-01-10T12:28:41.622Z,75.13
2019-01-10T12:31:07.667Z,74.96
2019-01-10T12:33:33.752Z,74.33
2019-01-10T12:35:59.873Z,74.51
2019-01-10T12:38:25.996Z,73.01
2019-01-10T12:40:52.023Z,73.39
2019-01-10T12:43:18.234Z,72.27
2019-01-10T12:45:44.283Z,73.29
2019-01-10T12:48:10.358Z,71.57
2019-01-10T12:50:36.404Z,71.95
2019-01-10T12:53:02.555Z,72.71
2019-01-10T12:55:32.640Z,71.86
2019-01-10T12:57:58.794Z,72.47
2019-01-10T13:00:24.792Z,73.07
2019-01-10T13:02:52.188Z,73.48
2019-01-10T13:05:18.582Z,73.47
2019-01-10T13:07:44.619Z,73.78
2019-01-10T13:10:17.932Z,72.92
2019-01-10T13:12:45.422Z,72.20
2019-01-10T13:15:14.430Z,72.79
2019-01-10T13:17:40.656Z,72.56
2019-01-10T13:20:09.911Z,73.83
2019-01-10T13:22:36.186Z,74.08
2019-01-10T13:25:04.043Z,74.22
2019-01-10T13:27:30.117Z,73.94
2019-01-10T13:29:56.449Z,73.93
2019-01-10T13:32:23.310Z,74.17
2019-01-10T13:34:50.006Z,74.34
2019-01-10T13:37:16.222Z,74.31
2019-01-10T13:39:42.482Z,73.81
2019-01-10T13:42:08.596Z,73.67
2019-01-10T13:44:34.809Z,75.32
2019-01-10T13:47:01.638Z,74.38
2019-01-10T13:49:28.278Z,74.81
2019-01-10T13:51:54.342Z,75.15
2019-01-10T13:54:20.460Z,74.52
2019-01-10T13:56:46.475Z,74.05
2019-01-10T14:01:38.667Z,74.00
2019-01-10T14:04:05.078Z,74.89
2019-01-10T14:06:31.230Z,74.30
2019-01-10T14:08:57.519Z,78.00
2019-01-10T14:11:23.952Z,76.84
2019-01-10T14:13:50.054Z,75.94
2019-01-10T14:16:16.194Z,75.99
2019-01-10T14:18:42.421Z,75.36
2019-01-10T14:21:08.432Z,75.11
2019-01-10T14:23:34.470Z,75.21
2019-01-10T14:26:00.502Z,75.05
2019-01-10T14:28:26.537Z,74.50
2019-01-10T14:30:52.554Z,83.66
2019-01-10T14:33:18.877Z,77.58
2019-01-10T14:35:45.084Z,76.70
2019-01-10T14:38:11.375Z,76.59
2019-01-10T14:40:37.496Z,76.82
2019-01-10T14:43:03.908Z,76.38
2019-01-10T14:45:31.101Z,77.23
2019-01-10T14:48:01.815Z,74.13
2019-01-10T14:50:25.738Z,74.54
2019-01-10T14:52:51.857Z,77.45
2019-01-10T14:55:17.958Z,75.71
2019-01-10T14:57:44.686Z,76.13
2019-01-10T15:00:16.570Z,74.85
2019-01-10T15:02:42.755Z,74.61
2019-01-10T15:05:08.881Z,73.71
2019-01-10T15:07:34.890Z,73.46
2019-01-10T15:10:01.014Z,71.19
2019-01-10T15:12:27.023Z,72.38
2019-01-10T15:14:53.047Z,71.56
2019-01-10T15:17:19.084Z,70.79
2019-01-10T15:19:45.109Z,71.23
2019-01-10T15:22:11.143Z,72.43
2019-01-10T15:24:37.191Z,71.84
2019-01-10T15:27:03.301Z,72.58
2019-01-10T15:29:29.367Z,71.46
2019-01-10T15:31:55.362Z,72.40
2019-01-10T15:34:21.391Z,73.14
2019-01-10T15:36:47.465Z,70.95
2019-01-10T15:39:13.491Z,72.98
2019-01-10T15:41:39.504Z,72.11
2019-01-10T15:44:05.569Z,73.56
2019-01-10T15:46:31.560Z,73.02
2019-01-10T15:48:57.588Z,72.37
2019-01-10T15:51:23.587Z,72.66
2019-01-10T15:53:49.585Z,72.97
2019-01-10T15:56:15.733Z,71.80
2019-01-10T15:58:41.842Z,72.41
2019-01-10T16:01:08.375Z,72.24
2019-01-10T16:03:34.486Z,72.62
2019-01-10T16:06:00.591Z,73.84
2019-01-10T16:08:26.613Z,74.53
2019-01-10T16:10:52.676Z,75.50
2019-01-10T16:13:18.819Z,76.68
2019-01-10T16:15:44.850Z,77.15
2019-01-10T16:18:10.917Z,76.89
2019-01-10T16:20:36.911Z,77.35
2019-01-10T16:23:03.546Z,77.64
2019-01-10T16:25:29.574Z,78.65
2019-01-10T16:27:55.602Z,79.09
2019-01-10T16:30:24.018Z,78.92
2019-01-10T16:32:50.107Z,79.11
2019-01-10T16:35:16.168Z,79.54
2019-01-10T16:37:42.360Z,80.01
2019-01-10T16:40:10.906Z,79.70
2019-01-10T16:42:36.964Z,79.69
2019-01-10T16:45:06.918Z,80.20
2019-01-10T16:47:33.010Z,80.19
2019-01-10T16:49:59.039Z,80.61
2019-01-10T16:52:25.144Z,81.47
2019-01-10T16:54:51.186Z,80.73
2019-01-10T16:57:17.235Z,80.74
2019-01-10T16:59:43.360Z,81.06
2019-01-10T17:02:09.417Z,81.12
2019-01-10T17:04:35.513Z,81.18
2019-01-10T17:07:01.530Z,81.56
2019-01-10T17:09:27.543Z,81.76
2019-01-10T17:11:53.591Z,83.28
2019-01-10T17:14:19.603Z,81.79
2019-01-10T17:16:50.133Z,81.57
2019-01-10T17:19:13.676Z,81.70
2019-01-10T17:21:39.724Z,81.85
2019-01-10T17:24:06.021Z,82.72
2019-01-10T17:26:32.270Z,84.06
2019-01-10T17:28:58.297Z,83.36
2019-01-10T17:31:24.379Z,83.48
2019-01-10T17:33:50.455Z,83.76
2019-01-10T17:36:18.536Z,81.92
2019-01-10T17:38:44.764Z,82.37
2019-01-10T17:41:10.761Z,82.28
2019-01-10T17:43:36.803Z,82.76
2019-01-10T17:46:02.839Z,82.21
2019-01-10T17:48:28.984Z,82.64
2019-01-10T17:50:55.253Z,83.25
2019-01-10T17:53:21.275Z,83.35
2019-01-10T17:55:47.283Z,83.48
2019-01-10T17:58:13.629Z,83.84
2019-01-10T18:00:39.727Z,84.31
2019-01-10T18:03:05.881Z,84.82
2019-01-10T18:05:32.014Z,84.61
2019-01-10T18:07:58.041Z,84.59
2019-01-10T18:10:24.156Z,84.44
2019-01-10T18:12:50.190Z,85.31
2019-01-10T18:15:18.704Z,85.63
2019-01-10T18:17:50.116Z,84.92
2019-01-10T18:20:18.858Z,84.31
2019-01-10T18:22:44.964Z,83.77
2019-01-10T18:25:11.168Z,83.63
2019-01-10T18:27:38.755Z,83.15
2019-01-10T18:30:08.706Z,84.07
2019-01-10T18:32:35.985Z,85.05
2019-01-10T18:35:11.880Z,83.75
2019-01-10T18:37:41.580Z,83.16
2019-01-10T18:40:17.171Z,84.03
2019-01-10T18:42:48.164Z,83.81
2019-01-10T18:45:30.969Z,84.58
2019-01-10T18:48:00.789Z,83.26
2019-01-10T18:53:51.890Z,83.03
2019-01-10T18:56:22.964Z,81.25
2019-01-10T18:59:11.605Z,82.20
2019-01-10T19:01:46.560Z,81.54
2019-01-10T19:04:33.844Z,83.09
2019-01-10T19:06:59.907Z,84.03
2019-01-10T19:09:25.908Z,85.86
2019-01-10T19:11:52.234Z,84.94
2019-01-10T19:14:18.265Z,85.81
2019-01-10T19:16:44.370Z,85.78
2019-01-10T19:19:10.414Z,85.44
2019-01-10T19:21:36.458Z,86.61
2019-01-10T19:24:02.486Z,86.16
2019-01-10T19:26:28.631Z,86.06
2019-01-10T19:28:54.678Z,86.41
2019-01-10T19:31:22.605Z,87.31
2019-01-10T19:33:48.627Z,87.14
2019-01-10T19:36:15.778Z,87.97
2019-01-10T19:38:43.011Z,88.43
2019-01-10T19:41:09.164Z,88.46
2019-01-10T19:43:36.350Z,87.31
2019-01-10T19:46:02.812Z,87.18
2019-01-10T19:48:28.855Z,87.35
2019-01-10T19:50:54.887Z,87.50
2019-01-10T19:53:21.047Z,87.24
2019-01-10T19:55:47.199Z,87.67
2019-01-10T19:58:13.322Z,88.33
2019-01-10T20:00:39.561Z,88.65
2019-01-10T20:03:05.830Z,87.63
2019-01-10T20:05:31.836Z,87.82
2019-01-10T20:07:59.166Z,89.04
2019-01-10T20:10:25.484Z,88.38
2019-01-10T20:12:53.785Z,87.93
2019-01-10T20:15:21.285Z,87.78
2019-01-10T20:17:47.571Z,88.59
2019-01-10T20:20:31.453Z,88.40
2019-01-10T20:22:57.617Z,89.04
2019-01-10T20:25:23.839Z,88.90
2019-01-10T20:27:49.871Z,88.18
2019-01-10T20:30:16.890Z,87.08
2019-01-10T20:32:42.984Z,87.43
2019-01-10T20:35:09.182Z,86.78
2019-01-10T20:37:35.293Z,87.47
2019-01-10T20:40:01.697Z,86.15
2019-01-10T20:42:27.727Z,86.39
2019-01-10T20:44:54.185Z,86.05
2019-01-10T20:47:20.658Z,85.70
2019-01-10T20:49:46.779Z,86.05
2019-01-10T20:52:12.796Z,86.01
2019-01-10T20:54:38.806Z,85.84
2019-01-10T20:57:05.161Z,85.87
2019-01-10T20:59:31.256Z,85.73
2019-01-10T21:01:57.414Z,85.80
2019-01-10T21:04:23.580Z,85.46
2019-01-10T21:06:49.763Z,85.27
2019-01-10T21:09:15.889Z,85.54
2019-01-10T21:11:41.942Z,85.75
2019-01-10T21:14:07.934Z,86.02
2019-01-10T21:16:34.199Z,86.05
2019-01-10T21:19:00.218Z,86.93
2019-01-10T21:21:26.232Z,86.72
2019-01-10T21:23:52.279Z,87.11
2019-01-10T21:26:18.386Z,87.22
2019-01-10T21:28:44.398Z,87.68
2019-01-10T21:31:12.027Z,88.07
2019-01-10T21:33:38.039Z,87.98
2019-01-10T21:36:04.061Z,88.01
2019-01-10T21:38:30.136Z,88.14
2019-01-10T21:40:56.250Z,87.66
2019-01-10T21:43:22.278Z,87.93
2019-01-10T21:45:48.306Z,88.17
2019-01-10T21:48:14.326Z,87.67
2019-01-10T21:50:40.362Z,87.49
2019-01-10T21:53:06.387Z,87.40
2019-01-10T21:55:32.402Z,87.81
2019-01-10T21:57:58.697Z,87.62
2019-01-10T22:00:29.538Z,88.21
2019-01-10T22:02:56.767Z,87.95
2019-01-10T22:05:22.966Z,86.91
2019-01-10T22:07:48.991Z,87.42
2019-01-10T22:10:15.042Z,87.94
2019-01-10T22:12:41.209Z,87.81
2019-01-10T22:15:10.611Z,88.33
2019-01-10T22:17:36.635Z,88.23
2019-01-10T22:20:06.007Z,88.68
2019-01-10T22:22:32.167Z,88.65
2019-01-10T22:24:58.371Z,88.44
2019-01-10T22:27:24.396Z,89.15
2019-01-10T22:29:50.420Z,88.77
2019-01-10T22:32:16.464Z,88.81
2019-01-10T22:34:42.541Z,88.50
2019-01-10T22:37:08.654Z,89.46
2019-01-10T22:39:34.659Z,89.81
2019-01-10T22:42:01.214Z,89.22
2019-01-10T22:44:27.230Z,89.46
2019-01-10T22:46:53.283Z,88.93
2019-01-10T22:49:19.314Z,88.76
2019-01-10T22:51:45.450Z,88.62
2019-01-10T22:54:11.468Z,88.72
2019-01-10T22:56:37.709Z,88.62
2019-01-10T22:59:04.059Z,88.49
2019-01-10T23:01:32.910Z,89.13
2019-01-10T23:03:59.250Z,88.61
2019-01-10T23:06:25.439Z,88.32
2019-01-10T23:08:51.816Z,88.49
2019-01-10T23:11:18.160Z,89.47
2019-01-10T23:13:52.742Z,88.73
2019-01-10T23:16:19.308Z,88.90
2019-01-10T23:18:45.333Z,89.36
2019-01-10T23:21:11.790Z,89.95
2019-01-10T23:23:37.814Z,90.46
2019-01-10T23:26:03.939Z,90.47
2019-01-10T23:28:35.662Z,90.87
2019-01-10T23:31:01.762Z,91.23
2019-01-10T23:33:27.880Z,91.95
2019-01-10T23:35:59.449Z,92.26
2019-01-10T23:38:25.550Z,92.06
2019-01-10T23:40:51.561Z,92.00
2019-01-10T23:43:17.596Z,92.27
2019-01-10T23:45:43.710Z,92.74
2019-01-10T23:48:09.730Z,92.83
2019-01-10T23:50:35.755Z,93.41
2019-01-10T23:53:01.785Z,92.82
2019-01-10T23:55:27.799Z,92.99
2019-01-10T23:57:53.806Z,93.11
